Time;durP1;ratioP1;P1;durP2;ratioP2;P2;SDS_P1;SDS_P2;PMS_P1;PMS_P2;Temp;Humidity;BMP_temperature;BMP_pressure;BME280_temperature;BME280_humidity;BME280_pressure;Samples;Min_cycle;Max_cycle;Signal;HPM_P1;HPM_P2
2021/12/28 00:01:35;;;;;;;10.43;3.00;;;;;;;;;;5039077;28;20390;-79
2021/12/28 00:04:05;;;;;;;9.25;2.78;;;;;;;;;;5037787;28;20045;-80
2021/12/28 00:06:33;;;;;;;8.73;3.65;;;;;;;;;;5038447;28;20045;-79
2021/12/28 00:09:00;;;;;;;11.15;3.25;;;;;;;;;;5038634;28;20515;-80
2021/12/28 00:11:27;;;;;;;8.00;2.90;;;;;;;;;;5056085;28;20064;-77
2021/12/28 00:14:00;;;;;;;8.80;2.58;;;;;;;;;;5056271;28;20037;-80
2021/12/28 00:18:59;;;;;;;7.68;2.78;;;;;;;;;;5055961;28;20555;-80
2021/12/28 00:21:27;;;;;;;9.18;2.60;;;;;;;;;;5038553;28;20468;-77
2021/12/28 00:23:57;;;;;;;9.25;2.63;;;;;;;;;;5055824;28;20045;-80
2021/12/28 00:26:25;;;;;;;3.90;2.28;;;;;;;;;;5037574;28;20124;-77
2021/12/28 00:28:52;;;;;;;7.90;2.50;;;;;;;;;;5055831;28;20103;-79
2021/12/28 00:31:24;;;;;;;5.50;2.25;;;;;;;;;;5037989;28;20073;-77
2021/12/28 00:33:53;;;;;;;5.53;2.40;;;;;;;;;;5055748;28;20412;-77
2021/12/28 00:36:21;;;;;;;3.58;2.30;;;;;;;;;;5055830;28;20040;-77
2021/12/28 00:38:52;;;;;;;4.55;2.20;;;;;;;;;;5055412;28;20095;-79
2021/12/28 00:41:28;;;;;;;6.43;2.38;;;;;;;;;;5055739;28;20132;-80
2021/12/28 00:43:57;;;;;;;5.03;2.10;;;;;;;;;;5054725;28;20502;-77
2021/12/28 00:46:28;;;;;;;10.68;2.70;;;;;;;;;;5037772;28;20064;-80
2021/12/28 00:48:56;;;;;;;4.43;2.20;;;;;;;;;;5055416;28;20452;-80
2021/12/28 00:51:23;;;;;;;10.43;2.75;;;;;;;;;;5037505;28;20041;-79
2021/12/28 00:53:50;;;;;;;4.82;2.22;;;;;;;;;;5037753;28;20380;-80
2021/12/28 00:56:25;;;;;;;5.70;1.90;;;;;;;;;;5055106;28;20136;-77
2021/12/28 00:58:56;;;;;;;8.77;1.95;;;;;;;;;;5055242;28;20051;-77
2021/12/28 01:01:23;;;;;;;4.68;1.88;;;;;;;;;;5055310;28;20052;-80
2021/12/28 01:03:51;;;;;;;4.05;2.05;;;;;;;;;;5036862;28;20048;-76
2021/12/28 01:06:22;;;;;;;4.18;1.67;;;;;;;;;;5054848;28;20439;-80
2021/12/28 01:08:53;;;;;;;4.65;2.10;;;;;;;;;;5037017;28;20041;-80
2021/12/28 01:11:21;;;;;;;1.92;1.58;;;;;;;;;;5055242;28;20069;-80
2021/12/28 01:13:52;;;;;;;2.13;1.30;;;;;;;;;;5037250;28;20123;-79
2021/12/28 01:16:19;;;;;;;2.97;1.50;;;;;;;;;;5036860;28;20037;-77
2021/12/28 01:18:47;;;;;;;3.45;1.77;;;;;;;;;;5054993;28;20073;-79
2021/12/28 01:21:14;;;;;;;3.45;1.42;;;;;;;;;;5037605;28;20539;-77
2021/12/28 01:23:43;;;;;;;3.55;1.73;;;;;;;;;;5054660;28;20408;-77
2021/12/28 01:26:10;;;;;;;2.53;1.30;;;;;;;;;;5036795;28;20041;-77
2021/12/28 01:28:38;;;;;;;2.90;1.25;;;;;;;;;;5054563;28;20501;-77
2021/12/28 01:31:06;;;;;;;3.88;1.35;;;;;;;;;;5054400;28;20468;-81
2021/12/28 01:33:34;;;;;;;3.47;1.30;;;;;;;;;;5054408;28;20555;-80
2021/12/28 01:36:02;;;;;;;2.83;1.42;;;;;;;;;;5054515;28;20041;-79
2021/12/28 01:38:29;;;;;;;4.38;1.48;;;;;;;;;;5054269;28;20052;-79
2021/12/28 01:40:58;;;;;;;4.13;1.48;;;;;;;;;;5054707;28;20051;-80
2021/12/28 01:43:26;;;;;;;5.32;1.40;;;;;;;;;;5054089;28;20053;-77
2021/12/28 01:45:56;;;;;;;3.53;1.50;;;;;;;;;;5036182;28;20135;-80
2021/12/28 01:48:27;;;;;;;3.78;1.50;;;;;;;;;;5036270;28;20074;-80
2021/12/28 01:50:56;;;;;;;4.60;1.70;;;;;;;;;;5053836;28;20037;-77
2021/12/28 01:53:25;;;;;;;2.83;1.60;;;;;;;;;;5054465;28;20480;-77
2021/12/28 01:55:53;;;;;;;4.78;1.63;;;;;;;;;;5053491;28;20045;-77
2021/12/28 01:58:24;;;;;;;3.70;1.67;;;;;;;;;;5054302;28;20095;-80
2021/12/28 02:00:53;;;;;;;4.63;2.10;;;;;;;;;;5036111;28;20049;-77
2021/12/28 02:03:22;;;;;;;3.47;1.73;;;;;;;;;;5019886;28;20087;-77
2021/12/28 02:05:53;;;;;;;5.25;1.85;;;;;;;;;;5053559;28;20098;-80
2021/12/28 02:08:21;;;;;;;4.90;1.80;;;;;;;;;;5053820;28;20388;-80
2021/12/28 02:10:50;;;;;;;9.75;2.33;;;;;;;;;;5053933;28;20507;-80
2021/12/28 02:13:18;;;;;;;3.85;1.50;;;;;;;;;;5053776;28;20469;-77
2021/12/28 02:15:49;;;;;;;2.85;1.48;;;;;;;;;;5053443;28;20416;-77
2021/12/28 02:18:21;;;;;;;5.43;2.00;;;;;;;;;;5053917;28;20407;-77
2021/12/28 02:20:49;;;;;;;2.58;1.73;;;;;;;;;;5053868;28;20052;-77
2021/12/28 02:23:17;;;;;;;6.05;2.10;;;;;;;;;;5053678;28;20048;-79
2021/12/28 02:25:45;;;;;;;3.30;1.83;;;;;;;;;;5036011;28;20144;-79
2021/12/28 02:28:17;;;;;;;3.33;1.70;;;;;;;;;;5036050;28;20107;-77
2021/12/28 02:30:48;;;;;;;4.80;1.90;;;;;;;;;;5053703;28;20068;-77
2021/12/28 02:33:17;;;;;;;2.25;1.77;;;;;;;;;;5035953;28;20049;-77
2021/12/28 02:35:45;;;;;;;3.75;1.83;;;;;;;;;;5035761;28;20048;-77
2021/12/28 02:38:17;;;;;;;2.70;1.70;;;;;;;;;;5036259;28;20049;-80
2021/12/28 02:40:44;;;;;;;3.97;1.98;;;;;;;;;;5053488;28;20128;-80
2021/12/28 02:43:13;;;;;;;4.78;1.92;;;;;;;;;;5053646;28;20482;-80
2021/12/28 02:45:47;;;;;;;3.53;2.10;;;;;;;;;;5035379;28;20061;-80
2021/12/28 02:48:15;;;;;;;9.57;2.65;;;;;;;;;;5053138;28;20037;-80
2021/12/28 02:50:54;;;;;;;7.25;2.75;;;;;;;;;;5053002;28;20637;-77
2021/12/28 02:53:22;;;;;;;8.85;2.40;;;;;;;;;;5053564;28;20464;-80
2021/12/28 02:55:52;;;;;;;6.68;2.42;;;;;;;;;;5035904;28;20128;-82
2021/12/28 02:58:45;;;;;;;8.13;3.03;;;;;;;;;;5035700;28;20044;-82
2021/12/28 03:01:31;;;;;;;9.23;3.45;;;;;;;;;;5017486;28;20068;-80
2021/12/28 03:04:07;;;;;;;6.10;4.03;;;;;;;;;;5052735;28;20116;-77
2021/12/28 03:06:36;;;;;;;9.20;5.03;;;;;;;;;;5052714;28;20072;-80
2021/12/28 03:09:06;;;;;;;8.15;3.30;;;;;;;;;;5053320;28;20048;-80
2021/12/28 03:11:37;;;;;;;4.63;2.83;;;;;;;;;;5053053;28;20056;-77
2021/12/28 03:14:04;;;;;;;5.05;2.80;;;;;;;;;;5052856;28;20051;-80
2021/12/28 03:16:32;;;;;;;5.45;3.10;;;;;;;;;;5052913;28;20048;-80
2021/12/28 03:19:06;;;;;;;6.07;3.25;;;;;;;;;;5052882;28;20120;-77
2021/12/28 03:21:35;;;;;;;7.78;4.28;;;;;;;;;;5053158;28;20045;-80
2021/12/28 03:24:04;;;;;;;10.63;5.45;;;;;;;;;;5053092;28;20075;-80
2021/12/28 03:26:33;;;;;;;10.57;6.70;;;;;;;;;;5052187;28;20053;-80
2021/12/28 03:29:00;;;;;;;14.95;8.43;;;;;;;;;;5052771;28;20037;-77
2021/12/28 03:31:30;;;;;;;19.67;12.00;;;;;;;;;;5052893;28;20374;-80
2021/12/28 03:34:01;;;;;;;17.35;11.13;;;;;;;;;;5053108;28;20041;-79
2021/12/28 03:36:29;;;;;;;17.02;9.65;;;;;;;;;;5052926;28;20045;-81
2021/12/28 03:39:01;;;;;;;18.23;9.63;;;;;;;;;;5034746;28;20056;-79
2021/12/28 03:41:29;;;;;;;19.88;9.48;;;;;;;;;;5053152;28;20449;-80
2021/12/28 03:43:58;;;;;;;12.75;7.43;;;;;;;;;;5052412;28;20512;-79
2021/12/28 03:46:26;;;;;;;14.50;6.90;;;;;;;;;;5052316;28;20041;-80
2021/12/28 03:48:54;;;;;;;10.07;5.90;;;;;;;;;;5035198;28;20041;-80
2021/12/28 03:51:23;;;;;;;9.70;5.53;;;;;;;;;;5035158;28;20112;-80
2021/12/28 03:53:54;;;;;;;9.38;4.80;;;;;;;;;;5052713;28;20049;-77
2021/12/28 03:56:25;;;;;;;9.00;4.25;;;;;;;;;;5053082;28;20055;-80
2021/12/28 03:58:54;;;;;;;7.32;4.72;;;;;;;;;;5052958;28;20123;-82
2021/12/28 04:01:26;;;;;;;7.45;4.20;;;;;;;;;;5053082;28;20041;-82
2021/12/28 04:03:54;;;;;;;8.82;3.75;;;;;;;;;;5034088;28;20049;-82
2021/12/28 04:06:21;;;;;;;9.77;3.85;;;;;;;;;;5052627;28;20033;-79
2021/12/28 04:08:52;;;;;;;6.00;4.38;;;;;;;;;;5052616;28;20120;-82
2021/12/28 04:11:29;;;;;;;5.15;3.10;;;;;;;;;;5052780;28;20535;-79
2021/12/28 04:14:01;;;;;;;5.80;2.92;;;;;;;;;;5052702;28;20037;-79
2021/12/28 04:16:29;;;;;;;5.75;2.55;;;;;;;;;;5034757;28;20047;-79
2021/12/28 04:18:57;;;;;;;8.63;3.00;;;;;;;;;;5037999;28;20045;-79
2021/12/28 04:21:30;;;;;;;8.57;3.70;;;;;;;;;;5038295;28;20115;-82
2021/12/28 04:23:57;;;;;;;6.30;3.50;;;;;;;;;;5055644;28;20047;-80
2021/12/28 04:26:25;;;;;;;6.10;3.70;;;;;;;;;;5055598;28;20033;-80
2021/12/28 04:28:55;;;;;;;8.50;3.67;;;;;;;;;;5055378;28;20476;-77
2021/12/28 04:31:23;;;;;;;14.32;4.88;;;;;;;;;;5038374;28;20040;-80
2021/12/28 04:33:53;;;;;;;13.18;4.60;;;;;;;;;;5038869;28;20033;-80
2021/12/28 04:36:25;;;;;;;8.77;4.38;;;;;;;;;;5055936;28;20072;-77
2021/12/28 04:38:53;;;;;;;13.52;4.32;;;;;;;;;;5037765;28;20047;-80
2021/12/28 04:41:22;;;;;;;8.95;3.70;;;;;;;;;;5038652;28;20488;-80
2021/12/28 04:43:49;;;;;;;15.00;3.72;;;;;;;;;;5021116;28;20048;-80
2021/12/28 04:46:19;;;;;;;8.95;2.90;;;;;;;;;;5021397;28;20479;-79
2021/12/28 04:48:48;;;;;;;14.18;3.40;;;;;;;;;;5055329;28;20052;-77
2021/12/28 04:51:19;;;;;;;14.15;3.10;;;;;;;;;;5055126;28;20036;-77
2021/12/28 04:53:50;;;;;;;13.52;3.30;;;;;;;;;;5055212;28;20032;-80
2021/12/28 04:56:21;;;;;;;7.88;2.60;;;;;;;;;;5055580;28;20120;-80
2021/12/28 04:58:50;;;;;;;6.45;2.38;;;;;;;;;;5055631;28;20124;-80
2021/12/28 05:01:18;;;;;;;9.32;2.40;;;;;;;;;;5037659;28;20515;-79
2021/12/28 05:03:46;;;;;;;6.22;2.65;;;;;;;;;;5054905;28;20102;-80
2021/12/28 05:06:15;;;;;;;7.03;2.17;;;;;;;;;;5036984;28;20386;-80
2021/12/28 05:08:42;;;;;;;9.65;2.30;;;;;;;;;;5055007;28;20132;-77
2021/12/28 05:11:14;;;;;;;11.02;3.42;;;;;;;;;;5054877;28;20136;-79
2021/12/28 05:13:44;;;;;;;8.77;3.15;;;;;;;;;;5037684;28;20059;-80
2021/12/28 05:16:15;;;;;;;12.20;3.40;;;;;;;;;;5054811;28;20124;-81
2021/12/28 05:18:43;;;;;;;10.35;2.28;;;;;;;;;;5021255;28;20076;-77
2021/12/28 05:21:14;;;;;;;8.75;2.88;;;;;;;;;;5054574;28;20072;-77
2021/12/28 05:23:42;;;;;;;8.52;2.05;;;;;;;;;;5054546;28;20576;-80
2021/12/28 05:26:10;;;;;;;5.35;1.80;;;;;;;;;;5054402;28;20043;-79
2021/12/28 05:28:38;;;;;;;9.27;2.65;;;;;;;;;;5054154;28;20044;-80
2021/12/28 05:31:06;;;;;;;11.45;2.58;;;;;;;;;;5054544;28;20041;-82
2021/12/28 05:33:34;;;;;;;12.30;2.50;;;;;;;;;;5037030;28;20091;-82
2021/12/28 05:36:04;;;;;;;10.60;3.10;;;;;;;;;;5037090;28;20048;-81
2021/12/28 05:38:31;;;;;;;11.20;2.40;;;;;;;;;;5054325;28;20498;-82
2021/12/28 05:41:01;;;;;;;11.95;3.53;;;;;;;;;;5036254;28;20044;-79
2021/12/28 05:43:31;;;;;;;12.07;2.85;;;;;;;;;;5054125;28;20081;-81
2021/12/28 05:46:00;;;;;;;12.15;2.90;;;;;;;;;;5036155;28;20132;-82
2021/12/28 05:48:27;;;;;;;11.85;4.72;;;;;;;;;;5054238;28;20037;-81
2021/12/28 05:50:56;;;;;;;11.75;2.95;;;;;;;;;;5036575;28;20115;-79
2021/12/28 05:53:34;;;;;;;16.30;3.05;;;;;;;;;;5054277;28;20044;-82
2021/12/28 05:56:02;;;;;;;9.50;2.47;;;;;;;;;;5037062;28;20087;-82
2021/12/28 05:58:29;;;;;;;12.00;2.78;;;;;;;;;;5054532;28;20052;-81
2021/12/28 06:00:57;;;;;;;11.95;3.20;;;;;;;;;;5048419;28;20569;-80
2021/12/28 06:03:26;;;;;;;9.13;2.67;;;;;;;;;;5032407;28;20045;-79
2021/12/28 06:05:53;;;;;;;9.27;2.60;;;;;;;;;;5033806;28;20044;-79
2021/12/28 06:08:26;;;;;;;8.85;3.50;;;;;;;;;;5033530;28;20041;-79
2021/12/28 06:10:59;;;;;;;14.43;2.08;;;;;;;;;;5032731;28;20044;-79
2021/12/28 06:13:27;;;;;;;5.60;1.88;;;;;;;;;;5032801;28;20038;-77
2021/12/28 06:15:55;;;;;;;8.07;2.25;;;;;;;;;;5015229;28;20071;-79
2021/12/28 06:18:24;;;;;;;7.65;2.20;;;;;;;;;;4999775;28;20132;-80
2021/12/28 06:20:52;;;;;;;7.95;2.80;;;;;;;;;;5033586;28;20120;-82
2021/12/28 06:23:21;;;;;;;9.88;2.35;;;;;;;;;;5033578;28;20049;-81
2021/12/28 06:25:51;;;;;;;9.82;2.60;;;;;;;;;;5033434;28;20048;-81
2021/12/28 06:28:19;;;;;;;9.85;3.00;;;;;;;;;;5033183;28;20041;-82
2021/12/28 06:30:46;;;;;;;7.95;2.60;;;;;;;;;;5033658;28;20033;-81
2021/12/28 06:33:15;;;;;;;13.85;4.47;;;;;;;;;;5015705;28;20116;-82
2021/12/28 06:35:45;;;;;;;9.25;3.55;;;;;;;;;;5016162;28;20443;-82
2021/12/28 06:38:16;;;;;;;8.40;3.00;;;;;;;;;;5033222;28;20489;-79
2021/12/28 06:40:46;;;;;;;7.78;2.67;;;;;;;;;;5015636;28;20489;-81
2021/12/28 06:43:15;;;;;;;10.77;2.72;;;;;;;;;;5015571;28;20049;-80
2021/12/28 06:45:45;;;;;;;9.02;4.53;;;;;;;;;;5031654;28;20140;-77
2021/12/28 06:48:13;;;;;;;5.95;2.05;;;;;;;;;;5033240;28;20134;-82
2021/12/28 06:50:41;;;;;;;4.20;1.77;;;;;;;;;;5033401;28;20495;-79
2021/12/28 06:53:15;;;;;;;7.80;1.95;;;;;;;;;;5032606;28;20526;-82
2021/12/28 06:55:42;;;;;;;4.25;1.98;;;;;;;;;;5032912;28;20041;-82
2021/12/28 06:58:12;;;;;;;5.55;2.10;;;;;;;;;;5016028;28;20048;-79
2021/12/28 07:00:39;;;;;;;3.33;2.00;;;;;;;;;;5015234;28;20145;-83
2021/12/28 07:03:10;;;;;;;3.88;1.50;;;;;;;;;;5014902;28;20052;-79
2021/12/28 07:05:38;;;;;;;3.83;1.42;;;;;;;;;;5032963;28;20057;-82
2021/12/28 07:08:05;;;;;;;3.05;1.40;;;;;;;;;;5033001;28;20037;-82
2021/12/28 07:10:34;;;;;;;4.47;1.60;;;;;;;;;;5032778;28;20600;-81
2021/12/28 07:13:08;;;;;;;5.05;1.83;;;;;;;;;;5015022;28;20057;-83
2021/12/28 07:15:37;;;;;;;5.80;1.58;;;;;;;;;;5032831;28;20040;-79
2021/12/28 07:18:06;;;;;;;5.53;1.70;;;;;;;;;;5032983;28;20057;-79
2021/12/28 07:20:35;;;;;;;5.07;1.77;;;;;;;;;;5032834;28;20515;-82
2021/12/28 07:23:03;;;;;;;5.55;1.40;;;;;;;;;;5032691;28;20041;-82
2021/12/28 07:25:31;;;;;;;2.38;1.17;;;;;;;;;;5032856;28;20405;-80
2021/12/28 07:27:58;;;;;;;7.90;1.88;;;;;;;;;;5032944;28;20044;-82
2021/12/28 07:30:28;;;;;;;5.93;1.92;;;;;;;;;;5015281;28;20044;-82
2021/12/28 07:32:56;;;;;;;5.32;2.00;;;;;;;;;;5032724;28;20081;-79
2021/12/28 07:35:25;;;;;;;3.80;1.90;;;;;;;;;;5032735;28;20056;-81
2021/12/28 07:37:53;;;;;;;4.18;1.80;;;;;;;;;;5014832;28;20140;-82
2021/12/28 07:40:24;;;;;;;7.88;2.42;;;;;;;;;;5014415;28;20212;-80
2021/12/28 07:42:53;;;;;;;7.03;1.88;;;;;;;;;;5032499;28;20055;-81
2021/12/28 07:45:22;;;;;;;5.25;2.17;;;;;;;;;;5031319;28;20076;-81
2021/12/28 07:47:50;;;;;;;4.60;1.92;;;;;;;;;;5015292;28;20041;-82
2021/12/28 07:50:18;;;;;;;4.50;2.08;;;;;;;;;;5031216;28;20095;-81
2021/12/28 07:52:47;;;;;;;6.65;1.70;;;;;;;;;;5033129;28;20503;-82
2021/12/28 07:55:16;;;;;;;5.57;1.98;;;;;;;;;;5002228;28;20112;-78
2021/12/28 07:57:44;;;;;;;5.15;2.55;;;;;;;;;;5036295;28;20037;-79
2021/12/28 08:00:18;;;;;;;10.23;3.78;;;;;;;;;;5036512;28;20520;-79
2021/12/28 08:02:48;;;;;;;8.02;3.08;;;;;;;;;;5056256;28;20052;-80
2021/12/28 08:05:17;;;;;;;6.65;2.70;;;;;;;;;;5055767;28;20119;-80
2021/12/28 08:07:44;;;;;;;5.15;2.78;;;;;;;;;;5056152;28;20404;-81
2021/12/28 08:10:13;;;;;;;7.60;2.30;;;;;;;;;;5038435;28;20095;-81
2021/12/28 08:12:41;;;;;;;8.23;2.10;;;;;;;;;;5037997;28;20045;-83
2021/12/28 08:15:09;;;;;;;4.32;1.70;;;;;;;;;;5055703;28;20047;-79
2021/12/28 08:17:40;;;;;;;5.57;2.30;;;;;;;;;;5037550;28;20120;-82
2021/12/28 08:20:10;;;;;;;6.20;1.83;;;;;;;;;;5055811;28;20045;-81
2021/12/28 08:22:38;;;;;;;4.47;1.80;;;;;;;;;;5056036;28;20045;-81
2021/12/28 08:25:06;;;;;;;7.97;2.30;;;;;;;;;;5055629;28;20045;-79
2021/12/28 08:27:36;;;;;;;6.15;2.28;;;;;;;;;;5055339;28;20056;-77
2021/12/28 08:30:05;;;;;;;4.35;1.90;;;;;;;;;;5037843;28;20037;-77
2021/12/28 08:32:36;;;;;;;4.30;1.80;;;;;;;;;;5054945;28;20105;-80
2021/12/28 08:35:04;;;;;;;5.03;2.08;;;;;;;;;;5055459;28;20049;-80
2021/12/28 08:37:34;;;;;;;4.07;1.40;;;;;;;;;;5021587;28;20048;-80
2021/12/28 08:40:03;;;;;;;4.22;1.25;;;;;;;;;;5036986;28;20045;-78
2021/12/28 08:42:31;;;;;;;8.88;1.27;;;;;;;;;;5055685;28;20045;-81
2021/12/28 08:44:59;;;;;;;7.70;1.80;;;;;;;;;;5038111;28;20053;-80
2021/12/28 08:47:37;;;;;;;6.88;1.52;;;;;;;;;;5039754;28;20083;-78
2021/12/28 08:50:07;;;;;;;6.78;1.30;;;;;;;;;;5037320;28;20411;-81
2021/12/28 08:52:34;;;;;;;3.88;1.15;;;;;;;;;;5042238;28;20072;-80
2021/12/28 08:55:03;;;;;;;4.32;1.08;;;;;;;;;;5056109;28;20037;-81
2021/12/28 08:57:30;;;;;;;6.43;1.15;;;;;;;;;;5054960;28;20056;-78
2021/12/28 08:59:58;;;;;;;4.55;1.40;;;;;;;;;;5054915;28;20120;-79
2021/12/28 09:02:28;;;;;;;5.25;2.05;;;;;;;;;;5055042;28;20555;-83
2021/12/28 09:04:55;;;;;;;4.75;1.65;;;;;;;;;;5054240;28;20420;-82
2021/12/28 09:07:24;;;;;;;4.53;1.40;;;;;;;;;;5037496;28;20063;-79
2021/12/28 09:09:56;;;;;;;5.80;1.17;;;;;;;;;;5023167;28;20045;-79
2021/12/28 09:12:24;;;;;;;3.70;1.52;;;;;;;;;;5055101;28;20045;-80
2021/12/28 09:14:52;;;;;;;5.20;1.30;;;;;;;;;;5054804;28;20043;-80
2021/12/28 09:17:23;;;;;;;7.80;1.30;;;;;;;;;;5054616;28;20120;-81
2021/12/28 09:19:52;;;;;;;4.43;1.40;;;;;;;;;;5054789;28;20051;-80
2021/12/28 09:22:19;;;;;;;2.92;1.08;;;;;;;;;;5054811;28;20124;-82
2021/12/28 09:24:47;;;;;;;5.15;1.40;;;;;;;;;;5037129;28;20441;-85
2021/12/28 09:27:18;;;;;;;6.18;1.15;;;;;;;;;;5038972;28;20060;-80
2021/12/28 09:29:45;;;;;;;3.15;1.00;;;;;;;;;;5038917;28;20144;-81
2021/12/28 09:32:19;;;;;;;4.60;1.40;;;;;;;;;;5054877;28;20457;-80
2021/12/28 09:34:47;;;;;;;6.38;1.33;;;;;;;;;;5036982;28;20124;-80
2021/12/28 09:37:19;;;;;;;7.18;1.48;;;;;;;;;;5036430;28;20060;-84
2021/12/28 09:39:50;;;;;;;9.65;2.85;;;;;;;;;;5054046;28;20041;-81
2021/12/28 09:45:12;;;;;;;5.00;1.70;;;;;;;;;;5054393;28;20099;-80
2021/12/28 09:47:43;;;;;;;7.50;1.88;;;;;;;;;;5019917;28;20041;-80
2021/12/28 09:50:14;;;;;;;3.40;1.10;;;;;;;;;;5035935;28;20066;-81
2021/12/28 09:52:44;;;;;;;5.85;1.55;;;;;;;;;;5036372;28;20037;-84
2021/12/28 09:55:13;;;;;;;7.35;1.55;;;;;;;;;;5035817;28;20385;-82
2021/12/28 09:57:41;;;;;;;6.90;1.65;;;;;;;;;;5054510;28;20599;-80
2021/12/28 10:00:09;;;;;;;7.70;1.63;;;;;;;;;;5037052;28;20037;-82
2021/12/28 10:02:37;;;;;;;6.50;1.95;;;;;;;;;;5037078;28;20488;-83
2021/12/28 10:05:10;;;;;;;3.30;1.27;;;;;;;;;;5036377;28;20048;-80
2021/12/28 10:07:42;;;;;;;3.40;1.30;;;;;;;;;;5053878;28;20507;-80
2021/12/28 10:10:12;;;;;;;5.38;1.33;;;;;;;;;;5037088;28;20041;-80
2021/12/28 10:12:46;;;;;;;4.00;1.13;;;;;;;;;;5035736;28;20041;-84
2021/12/28 10:15:15;;;;;;;6.28;1.23;;;;;;;;;;5054073;28;20121;-80
2021/12/28 10:17:44;;;;;;;7.13;1.35;;;;;;;;;;5035426;28;20476;-82
2021/12/28 10:20:21;;;;;;;4.22;1.95;;;;;;;;;;5054288;28;20053;-82
2021/12/28 10:22:53;;;;;;;5.30;1.45;;;;;;;;;;5054504;28;20123;-80
2021/12/28 10:25:30;;;;;;;5.50;1.45;;;;;;;;;;5036301;28;20308;-80
2021/12/28 10:28:00;;;;;;;5.03;1.50;;;;;;;;;;5052660;28;20047;-85
2021/12/28 10:30:29;;;;;;;4.85;1.23;;;;;;;;;;5052835;28;20554;-82
2021/12/28 10:32:59;;;;;;;6.18;1.45;;;;;;;;;;5052563;28;20116;-83
2021/12/28 10:35:56;;;;;;;10.82;1.70;;;;;;;;;;5039915;28;20036;-80
2021/12/28 10:38:25;;;;;;;7.30;1.42;;;;;;;;;;5036606;28;20041;-80
2021/12/28 10:41:11;;;;;;;6.63;1.40;;;;;;;;;;5053779;28;20040;-83
2021/12/28 10:43:40;;;;;;;9.98;1.65;;;;;;;;;;5093768;23;20074;-80
2021/12/28 10:46:09;;;;;;;3.72;1.33;;;;;;;;;;4997323;28;20081;-81
2021/12/28 10:48:39;;;;;;;4.57;1.52;;;;;;;;;;5014130;28;20041;-82
2021/12/28 10:51:09;;;;;;;5.70;1.55;;;;;;;;;;5013506;28;20121;-81
2021/12/28 10:56:51;;;;;;;6.07;1.58;;;;;;;;;;5032353;28;20128;-80
2021/12/28 10:59:27;;;;;;;3.83;1.30;;;;;;;;;;5033570;28;20129;-81
2021/12/28 11:01:55;;;;;;;10.15;1.23;;;;;;;;;;5016030;28;20506;-81
2021/12/28 11:04:36;;;;;;;7.47;1.58;;;;;;;;;;5016866;28;20147;-81
2021/12/28 11:07:13;;;;;;;7.15;1.48;;;;;;;;;;5015490;28;20045;-84
2021/12/28 11:09:49;;;;;;;3.35;1.52;;;;;;;;;;5032935;28;20052;-82
2021/12/28 11:12:17;;;;;;;3.45;1.23;;;;;;;;;;5015580;28;20091;-81
2021/12/28 11:14:47;;;;;;;7.07;1.80;;;;;;;;;;5034417;28;20389;-83
2021/12/28 11:17:16;;;;;;;5.80;1.35;;;;;;;;;;5034743;28;20069;-80
2021/12/28 11:19:43;;;;;;;6.28;1.55;;;;;;;;;;5016341;28;20034;-82
2021/12/28 11:22:13;;;;;;;4.22;1.35;;;;;;;;;;4998736;28;20128;-80
2021/12/28 11:24:49;;;;;;;7.72;1.58;;;;;;;;;;5032577;28;20041;-81
2021/12/28 11:27:21;;;;;;;5.30;1.63;;;;;;;;;;5017790;28;20042;-81
2021/12/28 11:30:00;;;;;;;8.65;1.73;;;;;;;;;;5037939;28;20068;-84
2021/12/28 11:32:28;;;;;;;8.07;1.42;;;;;;;;;;5036902;28;20206;-82
2021/12/28 11:34:59;;;;;;;5.53;1.58;;;;;;;;;;5004968;28;20107;-82
2021/12/28 11:37:31;;;;;;;5.57;1.50;;;;;;;;;;5036915;28;20045;-82
2021/12/28 11:40:08;;;;;;;2.22;1.20;;;;;;;;;;5021268;28;20056;-81
2021/12/28 11:42:38;;;;;;;5.32;1.70;;;;;;;;;;5019817;28;20069;-83
2021/12/28 11:45:08;;;;;;;5.07;1.52;;;;;;;;;;5036582;28;20072;-84
2021/12/28 11:47:36;;;;;;;2.60;1.50;;;;;;;;;;5036779;28;20040;-82
2021/12/28 11:50:08;;;;;;;3.35;1.40;;;;;;;;;;5036585;28;20120;-81
2021/12/28 11:52:36;;;;;;;5.90;1.52;;;;;;;;;;5036002;28;20041;-81
2021/12/28 11:55:10;;;;;;;3.60;1.25;;;;;;;;;;5002906;28;20044;-81
2021/12/28 11:57:49;;;;;;;5.70;1.85;;;;;;;;;;5036772;28;20047;-82
2021/12/28 12:00:19;;;;;;;3.33;0.98;;;;;;;;;;5018353;28;20164;-82
2021/12/28 12:02:59;;;;;;;3.95;1.40;;;;;;;;;;5036751;28;20041;-82
2021/12/28 12:05:28;;;;;;;8.98;2.05;;;;;;;;;;5036535;28;20041;-81
2021/12/28 12:08:09;;;;;;;3.55;1.40;;;;;;;;;;5036002;28;20038;-82
2021/12/28 12:10:39;;;;;;;5.88;2.75;;;;;;;;;;5035737;28;20046;-85
2021/12/28 12:13:15;;;;;;;7.38;1.77;;;;;;;;;;5035883;28;20126;-81
2021/12/28 12:15:44;;;;;;;6.85;1.50;;;;;;;;;;5035758;28;20495;-85
2021/12/28 12:18:14;;;;;;;8.75;1.83;;;;;;;;;;5003555;28;20054;-81
2021/12/28 12:20:46;;;;;;;4.28;2.28;;;;;;;;;;5035814;28;20048;-80
2021/12/28 12:23:19;;;;;;;3.25;1.17;;;;;;;;;;5002879;28;20095;-84
2021/12/28 12:26:24;;;;;;;3.85;1.60;;;;;;;;;;5035648;28;20058;-82
2021/12/28 12:28:53;;;;;;;5.93;1.20;;;;;;;;;;5023041;28;20381;-81
2021/12/28 12:31:22;;;;;;;6.85;1.63;;;;;;;;;;5018948;28;20053;-81
2021/12/28 12:33:50;;;;;;;5.18;1.42;;;;;;;;;;5036370;28;20045;-80
2021/12/28 12:36:29;;;;;;;4.15;1.17;;;;;;;;;;5036135;28;20048;-81
2021/12/28 12:38:57;;;;;;;6.38;2.30;;;;;;;;;;5017019;28;20055;-80
2021/12/28 12:41:37;;;;;;;6.60;1.30;;;;;;;;;;5017647;28;20049;-81
2021/12/28 12:44:23;;;;;;;4.18;1.25;;;;;;;;;;5035339;28;20057;-82
2021/12/28 12:46:52;;;;;;;4.13;1.30;;;;;;;;;;5017877;28;20049;-81
2021/12/28 12:49:32;;;;;;;5.22;1.45;;;;;;;;;;5018356;28;20128;-79
2021/12/28 12:52:16;;;;;;;7.45;1.00;;;;;;;;;;5035265;28;20041;-84
2021/12/28 12:54:48;;;;;;;3.92;1.30;;;;;;;;;;5017763;28;20408;-80
2021/12/28 12:57:16;;;;;;;;;;;;;;;;;;5035645;28;20087;-82
2021/12/28 12:59:53;;;;;;;5.13;1.50;;;;;;;;;;5035941;28;20383;-80
2021/12/28 13:02:22;;;;;;;8.80;1.85;;;;;;;;;;5035356;28;20132;-84
2021/12/28 13:04:55;;;;;;;5.15;1.60;;;;;;;;;;5017341;28;20042;-80
2021/12/28 13:07:28;;;;;;;5.03;1.63;;;;;;;;;;5017357;28;20041;-81
2021/12/28 13:10:07;;;;;;;4.43;1.60;;;;;;;;;;5034975;28;20048;-85
2021/12/28 13:12:45;;;;;;;5.35;1.95;;;;;;;;;;5035263;28;20084;-84
2021/12/28 13:15:17;;;;;;;7.13;1.48;;;;;;;;;;5035116;28;20037;-80
2021/12/28 13:17:45;;;;;;;6.82;2.30;;;;;;;;;;5034819;28;20072;-84
2021/12/28 13:20:30;;;;;;;3.97;1.90;;;;;;;;;;5034749;28;20103;-85
2021/12/28 13:23:01;;;;;;;7.38;2.10;;;;;;;;;;5035041;28;20522;-84
2021/12/28 13:25:32;;;;;;;4.60;2.53;;;;;;;;;;5035023;28;20049;-80
2021/12/28 13:28:01;;;;;;;4.90;1.75;;;;;;;;;;5034560;28;20069;-81
2021/12/28 13:30:34;;;;;;;8.73;1.70;;;;;;;;;;5017585;28;20041;-80
2021/12/28 13:33:11;;;;;;;;;;;;;;;;;;5034764;28;20123;-80
2021/12/28 13:35:42;;;;;;;3.75;1.67;;;;;;;;;;5035298;28;19921;-80
2021/12/28 13:38:15;;;;;;;4.40;1.77;;;;;;;;;;5016904;28;20416;-84
2021/12/28 13:40:53;;;;;;;4.30;1.65;;;;;;;;;;5034177;28;20037;-84
2021/12/28 13:43:23;;;;;;;5.90;1.70;;;;;;;;;;5034307;28;20416;-80
2021/12/28 13:46:00;;;;;;;9.90;2.30;;;;;;;;;;5034393;28;20480;-79
2021/12/28 13:48:34;;;;;;;4.28;1.65;;;;;;;;;;5034680;28;20041;-81
2021/12/28 13:51:04;;;;;;;3.10;1.27;;;;;;;;;;5034476;28;20033;-84
2021/12/28 13:53:35;;;;;;;3.10;1.30;;;;;;;;;;5034130;28;20056;-80
2021/12/28 13:56:04;;;;;;;8.02;3.22;;;;;;;;;;5016945;28;20037;-82
2021/12/28 13:58:33;;;;;;;4.45;1.63;;;;;;;;;;5034574;28;20041;-79
2021/12/28 14:01:07;;;;;;;4.40;1.30;;;;;;;;;;5033958;28;20120;-80
2021/12/28 14:03:36;;;;;;;5.15;1.50;;;;;;;;;;5034129;28;20042;-84
2021/12/28 14:06:04;;;;;;;5.68;2.00;;;;;;;;;;5016236;28;20135;-84
2021/12/28 14:08:33;;;;;;;6.70;2.35;;;;;;;;;;5034128;28;20036;-84
2021/12/28 14:11:01;;;;;;;5.32;1.80;;;;;;;;;;5034215;28;20426;-83
2021/12/28 14:13:35;;;;;;;4.32;1.73;;;;;;;;;;5016255;28;20481;-79
2021/12/28 14:16:10;;;;;;;6.88;2.30;;;;;;;;;;5034071;28;20096;-84
2021/12/28 14:18:38;;;;;;;6.53;1.77;;;;;;;;;;5034464;28;20045;-82
2021/12/28 14:21:13;;;;;;;4.70;1.90;;;;;;;;;;5033725;28;20384;-81
2021/12/28 14:23:43;;;;;;;7.00;1.83;;;;;;;;;;5033682;28;20052;-84
2021/12/28 14:26:16;;;;;;;5.10;2.20;;;;;;;;;;5015987;28;20184;-79
2021/12/28 14:29:11;;;;;;;4.18;1.73;;;;;;;;;;5033417;28;20041;-79
2021/12/28 14:31:40;;;;;;;7.28;2.83;;;;;;;;;;5016536;28;20076;-84
2021/12/28 14:34:08;;;;;;;6.50;2.33;;;;;;;;;;5015958;28;20037;-79
2021/12/28 14:36:43;;;;;;;6.22;2.20;;;;;;;;;;5033841;28;20038;-84
2021/12/28 14:39:13;;;;;;;5.13;1.75;;;;;;;;;;5033858;28;20124;-80
2021/12/28 14:41:44;;;;;;;6.40;1.67;;;;;;;;;;5033689;28;20045;-79
2021/12/28 14:44:21;;;;;;;8.93;1.60;;;;;;;;;;5015716;28;20056;-79
2021/12/28 14:46:53;;;;;;;9.60;2.15;;;;;;;;;;5033539;28;20546;-83
2021/12/28 14:49:23;;;;;;;7.82;2.40;;;;;;;;;;5033447;28;20045;-79
2021/12/28 14:51:53;;;;;;;6.90;2.25;;;;;;;;;;5033489;28;20122;-79
2021/12/28 14:54:22;;;;;;;6.03;2.00;;;;;;;;;;5033204;28;20042;-79
2021/12/28 14:56:50;;;;;;;8.90;2.53;;;;;;;;;;4999516;28;20049;-80
2021/12/28 14:59:21;;;;;;;6.38;2.50;;;;;;;;;;5033471;28;20045;-79
2021/12/28 15:01:49;;;;;;;13.18;3.17;;;;;;;;;;5032593;28;20068;-83
2021/12/28 15:04:17;;;;;;;5.55;2.10;;;;;;;;;;5032898;28;20064;-79
2021/12/28 15:06:54;;;;;;;9.50;2.50;;;;;;;;;;5016276;28;20045;-79
2021/12/28 15:09:26;;;;;;;5.03;2.40;;;;;;;;;;5033352;28;20124;-79
2021/12/28 15:11:57;;;;;;;6.88;2.38;;;;;;;;;;5015964;28;20055;-79